Time;durP1;ratioP1;P1;durP2;ratioP2;P2;SDS_P1;SDS_P2;PMS_P1;PMS_P2;Temp;Humidity;BMP_temperature;BMP_pressure;BME280_temperature;BME280_humidity;BME280_pressure;Samples;Min_cycle;Max_cycle;Signal;HPM_P1;HPM_P2
2022/04/17 00:01:48;;;;;;;13.10;7.10;;;;;;;3.40;67.63;99547.89;105984;1282;24309;-78
2022/04/17 00:04:15;;;;;;;13.90;6.60;;;;;;;3.38;67.74;99548.63;105539;1284;23200;-78
2022/04/17 00:06:42;;;;;;;13.20;7.60;;;;;;;3.35;67.67;99546.52;105389;1284;137505;-78
2022/04/17 00:09:09;;;;;;;12.90;7.20;;;;;;;3.32;67.18;99543.05;105555;1284;24403;-78
2022/04/17 00:11:36;;;;;;;13.50;7.30;;;;;;;3.31;67.70;99542.25;105482;1284;138270;-78
2022/04/17 00:14:03;;;;;;;13.00;7.10;;;;;;;3.31;67.87;99543.35;105543;1282;25325;-78
2022/04/17 00:16:30;;;;;;;17.10;8.00;;;;;;;3.29;67.65;99546.39;105556;1282;22650;-78
2022/04/17 00:18:57;;;;;;;18.30;7.50;;;;;;;3.29;67.74;99546.98;105553;1282;137697;-78
2022/04/17 00:21:38;;;;;;;14.60;7.20;;;;;;;3.27;67.72;99543.63;105556;1283;24786;-78
2022/04/17 00:24:05;;;;;;;15.40;7.50;;;;;;;3.23;67.98;99543.44;105256;1282;137624;-78
2022/04/17 00:26:32;;;;;;;15.70;6.80;;;;;;;3.21;68.64;99548.56;105545;1284;24394;-78
2022/04/17 00:29:00;;;;;;;19.50;8.60;;;;;;;3.14;68.62;99542.64;105571;1284;22569;-78
2022/04/17 00:31:27;;;;;;;19.60;9.40;;;;;;;3.10;68.92;99538.45;105511;1284;137322;-78
2022/04/17 00:33:54;;;;;;;22.50;9.10;;;;;;;3.08;69.28;99538.85;105626;1283;22717;-78
2022/04/17 00:36:21;;;;;;;18.10;8.70;;;;;;;3.07;69.85;99538.85;105463;1283;138735;-78
2022/04/17 00:38:48;;;;;;;19.00;9.10;;;;;;;3.03;69.76;99535.99;105614;1283;22643;-79
2022/04/17 00:41:16;;;;;;;16.30;8.80;;;;;;;2.97;69.84;99534.11;105478;1282;137895;-79
2022/04/17 00:43:46;;;;;;;19.10;9.00;;;;;;;2.94;70.35;99535.20;105520;1284;24411;-78
2022/04/17 00:46:14;;;;;;;21.60;10.00;;;;;;;2.91;70.47;99532.64;105650;1284;22595;-78
2022/04/17 00:48:41;;;;;;;23.20;9.30;;;;;;;2.92;70.64;99529.55;105366;1284;138324;-78
2022/04/17 00:51:09;;;;;;;19.40;8.60;;;;;;;2.92;70.68;99527.96;105608;1285;25483;-78
2022/04/17 00:53:37;;;;;;;17.50;9.20;;;;;;;2.91;70.65;99525.67;105599;1283;137675;-78
2022/04/17 00:56:09;;;;;;;18.40;8.60;;;;;;;2.90;70.64;99529.88;105856;1283;25337;-78
2022/04/17 00:58:39;;;;;;;15.80;7.50;;;;;;;2.86;70.16;99531.43;105721;1282;22603;-78
2022/04/17 01:01:06;;;;;;;19.40;8.60;;;;;;;2.80;70.28;99535.09;105556;1284;137339;-78
2022/04/17 01:03:33;;;;;;;17.90;8.50;;;;;;;2.73;70.98;99532.00;105545;1284;22656;-78
2022/04/17 01:06:01;;;;;;;19.40;9.10;;;;;;;2.66;70.64;99533.74;105447;1285;138197;-79
2022/04/17 01:08:28;;;;;;;22.30;8.70;;;;;;;2.63;70.83;99529.98;105692;1284;22526;-78
2022/04/17 01:10:55;;;;;;;17.30;7.70;;;;;;;2.60;70.92;99524.53;105618;1284;22704;-78
2022/04/17 01:13:22;;;;;;;18.60;8.10;;;;;;;2.57;71.00;99522.35;105419;1283;137523;-78
2022/04/17 01:16:05;;;;;;;15.70;7.80;;;;;;;2.54;71.37;99520.88;105699;1282;24390;-78
2022/04/17 01:18:57;;;;;;;20.00;8.00;;;;;;;2.51;71.27;99523.89;105603;1282;137520;-78
2022/04/17 01:21:24;;;;;;;15.10;7.60;;;;;;;2.48;71.14;99519.91;105778;1284;25352;-78
2022/04/17 01:29:18;;;;;;;16.80;7.60;;;;;;;2.41;71.50;99516.52;105422;1284;138570;-78
2022/04/17 01:31:46;;;;;;;18.30;8.50;;;;;;;2.42;71.65;99519.38;105386;1284;25275;-77
2022/04/17 01:34:16;;;;;;;15.80;7.50;;;;;;;2.43;71.71;99514.86;105433;1284;25352;-77
2022/04/17 01:36:45;;;;;;;17.80;7.80;;;;;;;2.44;71.71;99518.17;105562;1282;137359;-77
2022/04/17 01:39:13;;;;;;;17.10;7.50;;;;;;;2.43;71.83;99517.06;105644;1284;24332;-77
2022/04/17 01:41:40;;;;;;;13.50;6.90;;;;;;;2.40;71.95;99511.88;105547;1284;137812;-78
2022/04/17 01:44:08;;;;;;;17.70;7.90;;;;;;;2.37;72.05;99510.93;105570;1283;22695;-78
2022/04/17 01:46:36;;;;;;;16.10;8.00;;;;;;;2.32;72.11;99509.45;105672;1284;22777;-78
2022/04/17 01:49:06;;;;;;;19.40;8.10;;;;;;;2.28;72.17;99509.77;105563;1284;138088;-78
2022/04/17 01:51:39;;;;;;;14.70;8.00;;;;;;;2.23;72.05;99507.35;105621;1284;26640;-78
2022/04/17 01:54:10;;;;;;;14.40;7.70;;;;;;;2.20;72.14;99509.34;105518;1284;137850;-77
2022/04/17 01:56:39;;;;;;;17.40;7.90;;;;;;;2.18;72.15;99507.65;105676;1283;22595;-78
2022/04/17 01:59:07;;;;;;;17.50;7.10;;;;;;;2.15;72.03;99504.15;105691;1283;25534;-77
2022/04/17 02:01:36;;;;;;;13.60;7.00;;;;;;;2.11;71.93;99501.72;105517;1284;138073;-78
2022/04/17 02:04:04;;;;;;;15.40;8.20;;;;;;;2.07;72.03;99497.11;105826;1284;22737;-77
2022/04/17 02:06:32;;;;;;;13.50;7.20;;;;;;;2.03;72.16;99495.19;105502;1284;137421;-78
2022/04/17 02:08:59;;;;;;;15.60;7.80;;;;;;;1.99;72.08;99498.54;105676;1284;22699;-77
2022/04/17 02:11:27;;;;;;;12.80;6.90;;;;;;;1.95;72.28;99495.41;105717;1284;137619;-77
2022/04/17 02:13:54;;;;;;;15.60;7.70;;;;;;;1.90;72.19;99494.11;105650;1285;25468;-77
2022/04/17 02:16:21;;;;;;;16.80;7.90;;;;;;;1.86;72.45;99493.77;105598;1284;23235;-78
2022/04/17 02:18:49;;;;;;;16.70;7.00;;;;;;;1.85;72.43;99492.48;105517;1282;138225;-79
2022/04/17 02:21:17;;;;;;;16.90;8.20;;;;;;;1.83;72.63;99487.34;105403;1284;22548;-79
2022/04/17 02:24:00;;;;;;;16.10;7.40;;;;;;;1.81;72.74;99490.73;105315;1284;137566;-79
2022/04/17 02:26:27;;;;;;;;;;;;;;;1.78;73.06;99489.05;105275;1284;22540;-80
2022/04/17 02:28:56;;;;;;;13.90;6.80;;;;;;;1.76;73.18;99489.73;105448;1284;25509;-79
2022/04/17 02:31:24;;;;;;;17.10;6.80;;;;;;;1.73;73.34;99498.24;105499;1284;137641;-79
2022/04/17 02:34:08;;;;;;;15.70;7.60;;;;;;;1.69;73.19;99497.60;105656;1284;22550;-79
2022/04/17 02:36:35;;;;;;;16.90;7.60;;;;;;;1.67;73.42;99499.54;105506;1283;138052;-79
2022/04/17 02:39:16;;;;;;;15.40;8.30;;;;;;;1.65;73.54;99496.35;105694;1284;22617;-77
2022/04/17 02:41:43;;;;;;;17.00;7.50;;;;;;;1.64;73.74;99499.89;105652;1282;137443;-78
2022/04/17 02:44:10;;;;;;;13.80;6.90;;;;;;;1.63;73.82;99495.82;105427;1283;24403;-78
2022/04/17 02:49:18;;;;;;;11.70;6.10;;;;;;;1.62;73.74;99497.44;105676;1284;137332;-77
2022/04/17 02:51:45;;;;;;;12.10;6.90;;;;;;;1.61;73.51;99499.15;105627;1284;22550;-77
2022/04/17 02:54:25;;;;;;;15.00;7.00;;;;;;;1.61;73.26;99496.29;105279;1284;138404;-78
2022/04/17 02:56:52;;;;;;;16.50;6.50;;;;;;;1.62;73.18;99500.99;105588;1283;22734;-78
2022/04/17 02:59:19;;;;;;;11.50;6.30;;;;;;;1.62;73.11;99500.62;105459;1284;137580;-78
2022/04/17 03:07:08;;;;;;;11.60;6.00;;;;;;;1.59;73.00;99496.15;105626;1283;137456;-77
2022/04/17 03:09:35;;;;;;;12.60;6.10;;;;;;;1.58;72.81;99496.99;105553;1284;24097;-78
2022/04/17 03:12:02;;;;;;;13.00;6.10;;;;;;;1.57;72.84;99495.10;105439;1284;138126;-78
2022/04/17 03:14:31;;;;;;;9.80;5.50;;;;;;;1.57;72.92;99492.78;105606;1284;22637;-78
2022/04/17 03:16:58;;;;;;;11.20;6.10;;;;;;;1.55;72.86;99503.88;105567;1284;24225;-79
2022/04/17 03:19:24;;;;;;;12.00;6.10;;;;;;;1.53;72.81;99501.96;105439;1282;138049;-79
2022/04/17 03:21:51;;;;;;;11.10;6.40;;;;;;;1.50;73.01;99499.41;105636;1283;22569;-79
2022/04/17 03:24:18;;;;;;;13.00;5.50;;;;;;;1.48;73.03;99500.16;105569;1282;137478;-79
2022/04/17 03:26:46;;;;;;;11.80;5.90;;;;;;;1.46;72.77;99503.40;105608;1284;22570;-79
2022/04/17 03:29:13;;;;;;;11.50;6.00;;;;;;;1.45;72.80;99499.68;105666;1284;25256;-79
2022/04/17 03:31:40;;;;;;;9.10;5.40;;;;;;;1.48;72.77;99501.60;105644;1284;137797;-79
2022/04/17 03:34:08;;;;;;;8.20;5.50;;;;;;;1.50;72.49;99500.61;105509;1284;22570;-79
2022/04/17 03:36:39;;;;;;;9.50;5.00;;;;;;;1.51;72.14;99501.77;105634;1283;137132;-79
2022/04/17 03:39:07;;;;;;;10.80;6.10;;;;;;;1.54;72.00;99501.84;105662;1283;25511;-78
2022/04/17 03:41:37;;;;;;;12.30;6.00;;;;;;;1.56;71.98;99500.58;105616;1283;137536;-78
2022/04/17 03:44:04;;;;;;;10.30;6.10;;;;;;;1.55;71.98;99499.02;105502;1284;22569;-78
2022/04/17 03:46:33;;;;;;;12.60;6.10;;;;;;;1.55;72.19;99494.89;105502;1284;22660;-78
2022/04/17 03:49:00;;;;;;;10.70;6.00;;;;;;;1.57;72.21;99499.04;105609;1284;137609;-78
2022/04/17 03:51:27;;;;;;;10.30;5.30;;;;;;;1.61;72.24;99499.55;105665;1283;23940;-80
2022/04/17 03:53:53;;;;;;;9.30;5.70;;;;;;;1.64;72.30;99500.95;105583;1284;138061;-79
2022/04/17 03:56:20;;;;;;;8.60;5.00;;;;;;;1.70;72.44;99501.80;105652;1284;25384;-78
2022/04/17 03:58:47;;;;;;;10.80;6.00;;;;;;;1.74;72.20;99500.98;105743;1282;24441;-78
2022/04/17 04:01:14;;;;;;;13.00;6.00;;;;;;;1.78;72.63;99505.22;105499;1283;137476;-78
2022/04/17 04:03:41;;;;;;;12.70;5.70;;;;;;;1.81;72.44;99505.02;105586;1284;23627;-78
2022/04/17 04:06:08;;;;;;;10.20;5.10;;;;;;;1.84;72.55;99507.63;105669;1284;137275;-78
2022/04/17 04:08:35;;;;;;;10.60;5.50;;;;;;;1.86;72.35;99509.77;105616;1284;24448;-78
2022/04/17 04:11:01;;;;;;;10.50;5.20;;;;;;;1.86;72.59;99504.88;105645;1283;22576;-78
2022/04/17 04:13:28;;;;;;;11.20;5.20;;;;;;;1.87;72.13;99507.43;105445;1284;138069;-77
2022/04/17 04:15:55;;;;;;;9.00;5.40;;;;;;;1.88;72.25;99505.52;105639;1284;22547;-78
2022/04/17 04:18:22;;;;;;;7.20;4.90;;;;;;;1.90;72.21;99504.70;105690;1283;137323;-78
2022/04/17 04:20:49;;;;;;;12.30;6.10;;;;;;;1.91;72.12;99502.97;105669;1282;22562;-79
2022/04/17 04:23:19;;;;;;;9.90;5.70;;;;;;;1.90;72.14;99502.48;105689;1282;24328;-78
2022/04/17 04:25:46;;;;;;;10.10;5.60;;;;;;;1.91;72.12;99505.09;105497;1283;137638;-78
2022/04/17 04:30:55;;;;;;;13.20;6.30;;;;;;;1.91;72.19;99505.12;105545;1284;137917;-78
2022/04/17 04:33:22;;;;;;;10.20;6.20;;;;;;;1.90;72.11;99507.84;105694;1284;22663;-78
2022/04/17 04:35:50;;;;;;;11.70;6.40;;;;;;;1.93;72.26;99506.55;105643;1283;138165;-80
2022/04/17 04:38:17;;;;;;;9.20;5.30;;;;;;;1.95;72.45;99507.93;105723;1283;22574;-78
2022/04/17 04:40:44;;;;;;;14.40;6.20;;;;;;;1.95;72.42;99503.22;105749;1282;22747;-78
2022/04/17 04:43:12;;;;;;;13.10;6.60;;;;;;;1.95;72.57;99504.66;105613;1283;137945;-78
2022/04/17 04:49:29;;;;;;;11.60;5.80;;;;;;;1.97;72.75;99504.10;105555;1283;137349;-78
2022/04/17 04:51:07;;;;;;;10.50;5.50;;;;;;;1.98;72.99;99502.16;105707;1284;22566;-78
2022/04/17 04:53:34;;;;;;;11.30;7.10;;;;;;;2.01;73.12;99505.46;105389;1284;138557;-78
2022/04/17 04:56:01;;;;;;;12.40;6.10;;;;;;;2.08;73.07;99504.60;105707;1284;22563;-78
2022/04/17 04:58:28;;;;;;;11.30;6.30;;;;;;;2.16;72.67;99502.27;105646;1282;22568;-78
2022/04/17 05:00:55;;;;;;;13.00;6.00;;;;;;;2.27;72.41;99500.75;105584;1282;137478;-78
2022/04/17 05:03:22;;;;;;;12.40;5.50;;;;;;;2.37;72.15;99498.61;105596;1283;25438;-78
2022/04/17 05:06:03;;;;;;;10.60;5.50;;;;;;;2.46;71.84;99497.40;105482;1282;137440;-78
2022/04/17 05:08:30;;;;;;;9.50;5.50;;;;;;;2.56;72.01;99499.23;105596;1284;25635;-78
2022/04/17 05:10:57;;;;;;;9.50;6.00;;;;;;;2.65;71.58;99499.29;105630;1284;22587;-78
2022/04/17 05:13:24;;;;;;;11.70;6.00;;;;;;;2.73;71.37;99496.09;105374;1284;137314;-79
2022/04/17 05:15:52;;;;;;;11.90;6.10;;;;;;;2.81;70.84;99497.55;105492;1284;24400;-78
2022/04/17 05:18:19;;;;;;;10.70;5.60;;;;;;;2.90;70.63;99496.42;105644;1282;138441;-78
2022/04/17 05:20:46;;;;;;;10.50;5.70;;;;;;;2.99;70.14;99501.79;105572;1284;22613;-78
2022/04/17 05:23:29;;;;;;;10.00;6.00;;;;;;;3.07;70.18;99496.86;105500;1283;137815;-78
2022/04/17 05:25:58;;;;;;;8.40;4.90;;;;;;;3.13;70.44;99501.52;105597;1282;24457;-78
2022/04/17 05:28:26;;;;;;;12.40;5.60;;;;;;;3.18;70.15;99506.30;105689;1284;22545;-78
2022/04/17 05:30:53;;;;;;;11.20;5.70;;;;;;;3.23;69.88;99506.56;105425;1284;137522;-78
2022/04/17 05:33:21;;;;;;;9.50;5.90;;;;;;;3.24;69.61;99509.98;105817;1284;22568;-78
2022/04/17 05:35:49;;;;;;;11.40;5.50;;;;;;;3.26;70.07;99514.12;105479;1283;138477;-78
2022/04/17 05:38:17;;;;;;;10.00;5.50;;;;;;;3.28;69.65;99512.81;105673;1283;22530;-78
2022/04/17 05:40:48;;;;;;;8.10;5.10;;;;;;;3.33;68.87;99514.71;105622;1283;30850;-78
2022/04/17 05:43:16;;;;;;;9.00;5.40;;;;;;;3.39;69.01;99511.16;105500;1282;137892;-78
2022/04/17 05:45:58;;;;;;;8.80;5.10;;;;;;;3.47;68.52;99508.52;105688;1282;22550;-78
2022/04/17 05:48:25;;;;;;;11.90;6.20;;;;;;;3.53;68.07;99508.00;105613;1282;137162;-77
2022/04/17 05:50:53;;;;;;;8.70;5.40;;;;;;;3.58;68.11;99506.73;105206;1284;23425;-77
2022/04/17 05:53:34;;;;;;;8.30;4.80;;;;;;;3.63;67.93;99499.91;105342;1284;137331;-77
2022/04/17 05:56:15;;;;;;;7.40;4.00;;;;;;;3.71;68.04;99501.90;105204;1284;22569;-77
2022/04/17 05:58:42;;;;;;;7.50;4.50;;;;;;;3.77;67.26;99500.77;105743;1283;22950;-77
2022/04/17 06:01:08;;;;;;;8.70;4.80;;;;;;;3.83;67.85;99501.41;105611;1282;137597;-77
2022/04/17 06:03:50;;;;;;;8.70;4.20;;;;;;;3.91;67.61;99505.98;105596;1284;24436;-77
2022/04/17 06:06:18;;;;;;;7.80;4.90;;;;;;;3.99;67.30;99506.04;105625;1282;137177;-77
2022/04/17 06:08:48;;;;;;;9.60;4.60;;;;;;;4.06;67.40;99507.22;105724;1282;22597;-77
2022/04/17 06:11:29;;;;;;;10.10;5.20;;;;;;;4.11;66.63;99506.28;105528;1284;138147;-77
2022/04/17 06:14:10;;;;;;;9.90;4.30;;;;;;;4.16;66.63;99505.60;105647;1284;24243;-77
2022/04/17 06:16:38;;;;;;;8.70;4.30;;;;;;;4.22;66.79;99500.69;105555;1284;22590;-80
2022/04/17 06:19:05;;;;;;;8.80;5.20;;;;;;;4.27;67.00;99505.27;105500;1284;137102;-78
2022/04/17 06:21:32;;;;;;;8.50;5.00;;;;;;;4.35;67.01;99507.65;105767;1282;22546;-78
2022/04/17 06:23:59;;;;;;;7.80;4.90;;;;;;;4.44;66.78;99507.78;105488;1283;138066;-77
2022/04/17 06:26:40;;;;;;;8.30;4.90;;;;;;;4.55;66.64;99508.68;105669;1282;22753;-77
2022/04/17 06:29:21;;;;;;;8.40;4.80;;;;;;;4.64;66.33;99506.52;105727;1283;22739;-77
2022/04/17 06:31:47;;;;;;;6.30;4.10;;;;;;;4.74;66.04;99512.75;105461;1284;137151;-77
2022/04/17 06:34:15;;;;;;;7.50;4.40;;;;;;;4.81;65.77;99511.99;105665;1284;22722;-78
2022/04/17 06:36:42;;;;;;;9.40;5.50;;;;;;;4.86;65.53;99511.62;105482;1284;137214;-78
2022/04/17 06:39:09;;;;;;;9.90;5.50;;;;;;;4.89;64.95;99508.90;105502;1284;22576;-77
2022/04/17 06:41:37;;;;;;;7.30;4.50;;;;;;;4.89;64.06;99504.70;105378;1284;137390;-77
2022/04/17 06:44:04;;;;;;;9.20;5.00;;;;;;;4.90;64.41;99506.17;105643;1282;22578;-77
2022/04/17 06:46:32;;;;;;;9.60;4.20;;;;;;;4.94;64.92;99502.84;105692;1282;22731;-77
2022/04/17 06:49:14;;;;;;;7.10;4.00;;;;;;;5.00;64.17;99503.92;105497;1282;137479;-77
2022/04/17 06:51:40;;;;;;;5.20;3.20;;;;;;;5.06;63.96;99503.77;105498;1284;22721;-77
2022/04/17 06:54:08;;;;;;;7.50;4.20;;;;;;;5.11;63.54;99505.06;105290;1284;138149;-77
2022/04/17 06:56:35;;;;;;;6.50;4.00;;;;;;;5.18;63.71;99506.48;105616;1284;25678;-78
2022/04/17 06:59:05;;;;;;;6.90;3.80;;;;;;;5.24;63.39;99502.34;105659;1286;22544;-78
2022/04/17 07:01:32;;;;;;;6.50;3.60;;;;;;;5.31;62.66;99502.70;105518;1282;137291;-78
2022/04/17 07:03:59;;;;;;;6.40;4.20;;;;;;;5.38;62.67;99502.46;105638;1282;23245;-78
2022/04/17 07:06:26;;;;;;;9.10;4.40;;;;;;;5.46;62.80;99507.38;105540;1282;137818;-78
2022/04/17 07:08:53;;;;;;;7.30;4.30;;;;;;;5.53;62.11;99503.52;105702;1282;22718;-78
2022/04/17 07:11:23;;;;;;;6.50;4.10;;;;;;;5.60;62.49;99506.51;105557;1282;23090;-78
2022/04/17 07:13:50;;;;;;;6.40;3.80;;;;;;;5.69;62.71;99502.69;105078;1285;137282;-78
2022/04/17 07:16:17;;;;;;;5.50;3.60;;;;;;;5.80;62.52;99502.08;105252;1284;22572;-78
2022/04/17 07:18:58;;;;;;;5.20;3.20;;;;;;;5.88;60.50;99506.22;105297;1283;137281;-78
2022/04/17 07:21:28;;;;;;;4.70;3.50;;;;;;;5.95;59.26;99505.48;105501;1283;23931;-78
2022/04/17 07:23:54;;;;;;;4.90;3.70;;;;;;;6.01;58.69;99509.23;105460;1282;137254;-78
2022/04/17 07:26:21;;;;;;;7.70;4.20;;;;;;;6.04;60.19;99507.37;105470;1282;22696;-78
2022/04/17 07:29:03;;;;;;;4.70;2.90;;;;;;;6.14;60.64;99504.94;105427;1282;220657;-78
2022/04/17 07:31:31;;;;;;;5.40;3.00;;;;;;;6.21;57.73;99503.55;105522;1282;137452;-78
2022/04/17 07:33:58;;;;;;;6.10;2.30;;;;;;;6.25;58.04;99503.59;105555;1284;22842;-78
2022/04/17 07:36:25;;;;;;;2.40;1.60;;;;;;;6.32;55.50;99506.59;105542;1284;137448;-78
2022/04/17 07:38:52;;;;;;;3.00;1.90;;;;;;;6.38;54.97;99505.23;105518;1284;22575;-78
2022/04/17 07:41:19;;;;;;;4.00;2.50;;;;;;;6.43;54.69;99507.59;105547;1282;24342;-79
2022/04/17 07:43:46;;;;;;;4.70;3.40;;;;;;;6.49;54.17;99504.90;105407;1282;136997;-78
2022/04/17 07:46:13;;;;;;;4.70;3.30;;;;;;;6.50;54.51;99502.29;105611;1282;22666;-78
2022/04/17 07:48:40;;;;;;;6.20;3.60;;;;;;;6.49;54.32;99498.58;105545;1282;137275;-78
2022/04/17 07:51:07;;;;;;;4.40;2.60;;;;;;;6.55;54.35;99496.26;105567;1284;22570;-79
2022/04/17 07:53:34;;;;;;;4.20;2.40;;;;;;;6.63;52.64;99494.25;105503;1283;137294;-79
2022/04/17 07:56:02;;;;;;;2.90;2.00;;;;;;;6.75;51.58;99492.08;105792;1284;22564;-78
2022/04/17 07:58:34;;;;;;;4.40;2.50;;;;;;;6.88;51.82;99488.86;105810;1284;25340;-78
2022/04/17 08:01:11;;;;;;;5.60;3.10;;;;;;;6.89;52.44;99480.87;105789;1283;137570;-79
2022/04/17 08:06:09;;;;;;;2.00;1.30;;;;;;;7.06;50.78;99488.45;105694;1282;137509;-80
2022/04/17 08:08:37;;;;;;;1.90;1.30;;;;;;;7.12;49.02;99487.25;105976;1282;22559;-79
2022/04/17 08:11:05;;;;;;;4.20;1.50;;;;;;;7.17;48.22;99483.08;105825;1282;24275;-78
2022/04/17 08:13:34;;;;;;;2.70;2.10;;;;;;;7.24;49.17;99489.12;105927;1282;138463;-77
2022/04/17 08:16:04;;;;;;;4.00;2.10;;;;;;;7.33;49.84;99490.35;105740;1282;22532;-78
2022/04/17 08:18:47;;;;;;;3.30;2.20;;;;;;;7.38;49.85;99488.69;105469;1282;137226;-78
2022/04/17 08:21:17;;;;;;;3.70;2.90;;;;;;;7.39;48.91;99484.60;105870;1282;25488;-78
2022/04/17 08:23:46;;;;;;;4.90;3.30;;;;;;;7.43;50.22;99481.24;105770;1284;137938;-78
2022/04/17 08:26:27;;;;;;;2.70;1.90;;;;;;;7.49;49.95;99484.79;105714;1283;22593;-77
2022/04/17 08:29:09;;;;;;;3.40;2.50;;;;;;;7.50;48.33;99483.70;105751;1284;22584;-77
2022/04/17 08:31:36;;;;;;;2.60;2.30;;;;;;;7.50;48.03;99479.78;105937;1284;137705;-77
2022/04/17 08:34:03;;;;;;;5.60;2.30;;;;;;;7.52;48.55;99485.13;105921;1282;22556;-77
2022/04/17 08:36:45;;;;;;;2.80;1.80;;;;;;;7.59;46.87;99479.66;105836;1282;137954;-77
2022/04/17 08:39:14;;;;;;;3.60;1.90;;;;;;;7.60;46.47;99477.05;105821;1282;22577;-77
2022/04/17 08:41:44;;;;;;;1.60;1.50;;;;;;;7.68;45.41;99477.29;106135;1282;138041;-77
2022/04/17 08:44:12;;;;;;;5.40;2.30;;;;;;;7.72;46.29;99475.06;105986;1282;24347;-77
2022/04/17 08:46:45;;;;;;;4.40;2.50;;;;;;;7.78;48.21;99473.21;105735;1284;25402;-77
2022/04/17 08:49:12;;;;;;;4.20;2.60;;;;;;;7.87;47.81;99473.91;105814;1282;137759;-78
2022/04/17 08:51:39;;;;;;;5.00;3.10;;;;;;;7.95;48.40;99471.15;105701;1283;24386;-77
2022/04/17 08:54:24;;;;;;;4.50;2.70;;;;;;;8.06;46.95;99462.73;105571;1282;137464;-77
2022/04/17 08:56:52;;;;;;;3.40;2.10;;;;;;;8.10;47.93;99456.71;105690;1282;25385;-77
2022/04/17 08:59:19;;;;;;;2.60;2.20;;;;;;;8.24;48.01;99451.25;105656;1282;23935;-79
2022/04/17 09:01:46;;;;;;;2.70;2.00;;;;;;;8.41;47.13;99447.95;105583;1282;137183;-78
2022/04/17 09:04:27;;;;;;;4.00;2.20;;;;;;;8.59;45.09;99444.20;105540;1282;22548;-77
2022/04/17 09:06:55;;;;;;;2.90;1.80;;;;;;;8.72;44.70;99436.80;105511;1284;137163;-77
2022/04/17 09:09:22;;;;;;;3.70;1.80;;;;;;;9.01;45.94;99433.48;105676;1284;24457;-77
2022/04/17 09:11:54;;;;;;;3.40;2.10;;;;;;;9.27;45.89;99432.86;105522;1282;137294;-77
2022/04/17 09:14:22;;;;;;;2.80;2.50;;;;;;;9.37;45.25;99425.30;105556;1284;23140;-77
2022/04/17 09:17:09;;;;;;;1.80;1.60;;;;;;;9.28;44.16;99431.13;105658;1284;22716;-77
2022/04/17 09:19:37;;;;;;;2.60;2.30;;;;;;;9.21;45.04;99423.42;105553;1284;137442;-77
2022/04/17 09:22:09;;;;;;;2.20;1.90;;;;;;;9.31;44.51;99418.46;105616;1284;22541;-77
2022/04/17 09:24:38;;;;;;;3.20;2.60;;;;;;;9.37;43.44;99421.83;105521;1282;137244;-77
2022/04/17 09:27:07;;;;;;;2.20;1.80;;;;;;;9.26;42.89;99419.48;105588;1282;23916;-77
2022/04/17 09:29:48;;;;;;;3.50;2.10;;;;;;;9.13;42.95;99418.80;105348;1282;137709;-77
2022/04/17 09:32:21;;;;;;;2.30;1.80;;;;;;;9.00;44.75;99418.56;105426;1283;24265;-77
2022/04/17 09:34:50;;;;;;;3.30;2.50;;;;;;;8.87;44.36;99420.01;105574;1282;25374;-77
2022/04/17 09:37:18;;;;;;;;;;;;;;;8.72;44.86;99417.09;105476;1284;137534;-77
2022/04/17 09:39:46;;;;;;;2.80;2.10;;;;;;;8.65;45.10;99417.88;105531;1284;22617;-77
2022/04/17 09:42:21;;;;;;;3.20;2.00;;;;;;;8.59;44.65;99410.06;105884;1284;137315;-77
2022/04/17 09:44:54;;;;;;;3.60;2.00;;;;;;;8.77;45.65;99410.07;105812;1284;22549;-77
2022/04/17 09:47:27;;;;;;;2.30;2.00;;;;;;;8.91;44.69;99403.83;105643;1284;22587;-77
2022/04/17 09:50:09;;;;;;;2.50;1.70;;;;;;;9.02;42.84;99397.88;105955;1284;137709;-77
2022/04/17 09:52:45;;;;;;;2.90;2.10;;;;;;;9.18;43.42;99396.60;105664;1284;24083;-77
2022/04/17 09:55:13;;;;;;;3.20;2.20;;;;;;;9.43;43.80;99397.93;105702;1282;137395;-77
2022/04/17 09:57:43;;;;;;;3.50;2.20;;;;;;;9.52;43.42;99395.06;105822;1284;25268;-77
2022/04/17 10:00:15;;;;;;;2.80;2.00;;;;;;;9.63;43.11;99392.21;105965;1284;137618;-77
2022/04/17 10:02:45;;;;;;;2.70;1.90;;;;;;;9.47;40.98;99388.47;105887;1284;22585;-76
2022/04/17 10:05:13;;;;;;;;;;;;;;;9.34;42.32;99385.76;105901;1284;22559;-77
2022/04/17 10:07:42;;;;;;;3.00;2.10;;;;;;;9.23;43.26;99383.65;105771;1284;123884;-77
2022/04/17 10:10:23;;;;;;;3.30;2.30;;;;;;;9.02;42.94;99388.76;106470;1284;22569;-76
2022/04/17 10:12:54;;;;;;;3.50;2.40;;;;;;;8.80;44.06;99383.23;105698;1284;138587;-76
2022/04/17 10:15:21;;;;;;;3.60;2.50;;;;;;;8.62;43.45;99380.48;105888;1283;22550;-78
2022/04/17 10:17:49;;;;;;;2.60;2.30;;;;;;;8.48;44.89;99379.02;105908;1284;137790;-76
2022/04/17 10:20:16;;;;;;;1.90;1.70;;;;;;;8.41;44.67;99375.70;105838;1284;22642;-76
2022/04/17 10:22:43;;;;;;;2.40;1.80;;;;;;;8.36;43.88;99371.11;105841;1282;22556;-76
2022/04/17 10:25:25;;;;;;;2.30;1.80;;;;;;;8.50;42.58;99368.58;106224;1282;137813;-76
2022/04/17 10:28:08;;;;;;;1.80;1.60;;;;;;;8.84;43.88;99361.67;106071;1284;22583;-77
2022/04/17 10:31:17;;;;;;;2.50;1.80;;;;;;;9.05;43.61;99363.92;105963;1281;137676;-78
2022/04/17 10:34:18;;;;;;;2.20;1.60;;;;;;;9.16;41.80;99360.55;105915;1282;22571;-79
2022/04/17 10:37:01;;;;;;;1.90;1.30;;;;;;;9.03;41.78;99357.95;106477;1282;137361;-77
2022/04/17 10:39:50;;;;;;;1.90;1.70;;;;;;;8.98;43.07;99356.96;105716;1283;22551;-78
2022/04/17 10:42:18;;;;;;;;;;;;;;;9.00;43.44;99354.29;105526;1284;137626;-77
2022/04/17 10:45:01;;;;;;;2.00;1.50;;;;;;;8.98;41.10;99346.94;105933;1282;23459;-77
2022/04/17 10:47:29;;;;;;;1.30;1.20;;;;;;;9.00;41.35;99343.84;106255;1282;30891;-77
2022/04/17 10:50:10;;;;;;;2.10;1.40;;;;;;;8.97;41.39;99343.04;105959;1282;137186;-77
2022/04/17 10:52:37;;;;;;;3.00;1.80;;;;;;;8.97;41.34;99337.36;105931;1282;22541;-77
2022/04/17 10:55:13;;;;;;;1.80;1.60;;;;;;;8.98;41.39;99333.42;106030;1282;137463;-77
2022/04/17 10:57:45;;;;;;;2.20;1.50;;;;;;;9.08;41.05;99332.73;105766;1284;30529;-77
2022/04/17 11:00:28;;;;;;;4.20;1.80;;;;;;;9.19;41.85;99331.31;105549;1284;137547;-77
2022/04/17 11:03:01;;;;;;;1.80;1.60;;;;;;;9.32;41.29;99328.09;106058;1284;22588;-77
2022/04/17 11:08:26;;;;;;;2.20;1.40;;;;;;;9.54;40.73;99323.56;106163;1282;137262;-77
2022/04/17 11:11:02;;;;;;;1.70;1.10;;;;;;;9.64;40.18;99318.07;106300;1282;22526;-77
2022/04/17 11:13:34;;;;;;;2.30;1.20;;;;;;;9.83;41.07;99316.33;106124;1282;137897;-77
2022/04/17 11:16:07;;;;;;;2.50;1.30;;;;;;;10.00;40.40;99309.35;106253;1282;22583;-77
2022/04/17 11:18:34;;;;;;;1.60;1.30;;;;;;;10.22;40.19;99305.66;105745;1283;137676;-77
2022/04/17 11:21:01;;;;;;;2.30;1.40;;;;;;;10.56;39.91;99302.59;105850;1284;22731;-77
2022/04/17 11:24:02;;;;;;;1.60;1.40;;;;;;;10.77;39.10;99301.17;105866;1284;22453;-76
2022/04/17 11:26:52;;;;;;;1.40;1.20;;;;;;;10.97;37.96;99292.23;104878;1288;137487;-76
2022/04/17 11:29:37;;;;;;;2.20;1.40;;;;;;;10.94;37.68;99284.89;105180;1290;22557;-77
2022/04/17 11:32:18;;;;;;;1.40;1.20;;;;;;;11.25;38.11;99283.17;105380;1287;137649;-77
2022/04/17 11:34:52;;;;;;;2.80;1.40;;;;;;;11.37;36.87;99278.66;105281;1288;24089;-77
2022/04/17 11:37:21;;;;;;;1.30;1.20;;;;;;;11.27;35.05;99280.39;105739;1287;138065;-77
2022/04/17 11:39:49;;;;;;;1.10;1.00;;;;;;;11.16;35.39;99280.39;105553;1287;22573;-77
2022/04/17 11:42:16;;;;;;;1.40;1.10;;;;;;;11.08;35.65;99276.80;105182;1288;137784;-77
2022/04/17 11:44:44;;;;;;;1.40;1.20;;;;;;;10.90;35.83;99270.48;105453;1288;23944;-77
2022/04/17 11:47:19;;;;;;;1.70;1.50;;;;;;;10.63;37.30;99272.67;105401;1287;22597;-77
2022/04/17 11:49:48;;;;;;;1.90;1.30;;;;;;;10.31;36.20;99272.48;105376;1287;140076;-76
2022/04/17 11:52:17;;;;;;;1.90;1.30;;;;;;;10.07;37.59;99269.06;105427;1287;24448;-77
2022/04/17 11:54:45;;;;;;;;;;;;;;;9.93;38.77;99267.41;105403;1287;137909;-77
2022/04/17 11:57:26;;;;;;;3.10;1.00;;;;;;;9.94;39.03;99263.84;104947;1288;22669;-77
2022/04/17 11:59:55;;;;;;;3.30;1.10;;;;;;;10.07;38.70;99267.44;105615;1288;24221;-77
2022/04/17 12:02:25;;;;;;;1.70;1.10;;;;;;;10.36;37.98;99262.94;104999;1287;138400;-77
2022/04/17 12:05:05;;;;;;;2.40;1.20;;;;;;;10.66;37.30;99255.98;105612;1282;25479;-77
2022/04/17 12:08:11;;;;;;;1.20;1.10;;;;;;;10.77;36.26;99253.71;105581;1281;138205;-76